sensor_id;sensor_type;location;lat;lon;timestamp;P1;durP1;ratioP1;P2;durP2;ratioP2
63012;SDS011;62113;45.624;11.700;2023-06-24T00:00:59;21.40;;;8.75;;
63012;SDS011;62113;45.624;11.700;2023-06-24T00:03:25;14.10;;;8.53;;
63012;SDS011;62113;45.624;11.700;2023-06-24T00:05:50;14.20;;;8.03;;
63012;SDS011;62113;45.624;11.700;2023-06-24T00:08:16;21.67;;;9.70;;
63012;SDS011;62113;45.624;11.700;2023-06-24T00:10:48;24.05;;;10.32;;
63012;SDS011;62113;45.624;11.700;2023-06-24T00:13:17;21.35;;;9.02;;
63012;SDS011;62113;45.624;11.700;2023-06-24T00:15:42;18.67;;;8.60;;
63012;SDS011;62113;45.624;11.700;2023-06-24T00:18:09;13.87;;;9.13;;
63012;SDS011;62113;45.624;11.700;2023-06-24T00:20:35;17.35;;;9.25;;
63012;SDS011;62113;45.624;11.700;2023-06-24T00:23:01;17.05;;;8.73;;
63012;SDS011;62113;45.624;11.700;2023-06-24T00:30:18;17.80;;;8.00;;
63012;SDS011;62113;45.624;11.700;2023-06-24T00:32:44;23.43;;;8.90;;
63012;SDS011;62113;45.624;11.700;2023-06-24T00:35:10;19.03;;;8.77;;
63012;SDS011;62113;45.624;11.700;2023-06-24T00:37:39;16.85;;;8.10;;
63012;SDS011;62113;45.624;11.700;2023-06-24T00:40:05;19.20;;;8.82;;
63012;SDS011;62113;45.624;11.700;2023-06-24T00:42:31;14.50;;;8.68;;
63012;SDS011;62113;45.624;11.700;2023-06-24T00:47:23;22.80;;;7.93;;
63012;SDS011;62113;45.624;11.700;2023-06-24T00:49:48;14.93;;;8.53;;
63012;SDS011;62113;45.624;11.700;2023-06-24T00:52:14;12.43;;;9.20;;
63012;SDS011;62113;45.624;11.700;2023-06-24T00:54:41;23.65;;;9.20;;
63012;SDS011;62113;45.624;11.700;2023-06-24T00:57:07;20.27;;;8.80;;
63012;SDS011;62113;45.624;11.700;2023-06-24T00:59:33;16.80;;;7.70;;
63012;SDS011;62113;45.624;11.700;2023-06-24T01:02:00;16.88;;;8.30;;
63012;SDS011;62113;45.624;11.700;2023-06-24T01:04:26;22.23;;;8.77;;
63012;SDS011;62113;45.624;11.700;2023-06-24T01:06:52;16.35;;;9.57;;
63012;SDS011;62113;45.624;11.700;2023-06-24T01:09:18;14.75;;;7.90;;
63012;SDS011;62113;45.624;11.700;2023-06-24T01:11:45;18.08;;;8.68;;
63012;SDS011;62113;45.624;11.700;2023-06-24T01:14:11;20.90;;;8.88;;
63012;SDS011;62113;45.624;11.700;2023-06-24T01:16:39;24.87;;;9.10;;
63012;SDS011;62113;45.624;11.700;2023-06-24T01:33:10;23.80;;;9.30;;
63012;SDS011;62113;45.624;11.700;2023-06-24T01:35:39;16.00;;;9.25;;
63012;SDS011;62113;45.624;11.700;2023-06-24T01:38:08;16.48;;;8.82;;
63012;SDS011;62113;45.624;11.700;2023-06-24T01:40:38;19.92;;;9.00;;
63012;SDS011;62113;45.624;11.700;2023-06-24T01:43:11;18.08;;;9.25;;
63012;SDS011;62113;45.624;11.700;2023-06-24T01:45:42;17.23;;;8.90;;
63012;SDS011;62113;45.624;11.700;2023-06-24T01:48:15;15.55;;;8.45;;
63012;SDS011;62113;45.624;11.700;2023-06-24T01:50:58;18.42;;;9.30;;
63012;SDS011;62113;45.624;11.700;2023-06-24T01:53:26;20.80;;;9.32;;
63012;SDS011;62113;45.624;11.700;2023-06-24T01:55:54;15.18;;;10.50;;
63012;SDS011;62113;45.624;11.700;2023-06-24T01:58:22;20.88;;;9.93;;
63012;SDS011;62113;45.624;11.700;2023-06-24T02:00:48;20.25;;;9.57;;
63012;SDS011;62113;45.624;11.700;2023-06-24T02:03:15;17.30;;;9.23;;
63012;SDS011;62113;45.624;11.700;2023-06-24T02:05:42;14.02;;;9.48;;
63012;SDS011;62113;45.624;11.700;2023-06-24T02:08:09;14.55;;;9.55;;
63012;SDS011;62113;45.624;11.700;2023-06-24T02:10:38;15.23;;;9.60;;
63012;SDS011;62113;45.624;11.700;2023-06-24T02:13:05;19.73;;;9.63;;
63012;SDS011;62113;45.624;11.700;2023-06-24T02:15:34;19.60;;;9.68;;
63012;SDS011;62113;45.624;11.700;2023-06-24T02:18:02;16.55;;;9.18;;
63012;SDS011;62113;45.624;11.700;2023-06-24T02:20:29;16.52;;;10.10;;
63012;SDS011;62113;45.624;11.700;2023-06-24T02:22:57;14.40;;;10.35;;
63012;SDS011;62113;45.624;11.700;2023-06-24T02:25:24;28.00;;;11.30;;
63012;SDS011;62113;45.624;11.700;2023-06-24T02:27:51;17.42;;;10.50;;
63012;SDS011;62113;45.624;11.700;2023-06-24T02:30:18;13.98;;;9.52;;
63012;SDS011;62113;45.624;11.700;2023-06-24T02:32:46;20.40;;;10.13;;
63012;SDS011;62113;45.624;11.700;2023-06-24T02:35:12;16.67;;;9.33;;
63012;SDS011;62113;45.624;11.700;2023-06-24T02:37:37;22.17;;;10.03;;
63012;SDS011;62113;45.624;11.700;2023-06-24T02:40:03;15.70;;;9.43;;
63012;SDS011;62113;45.624;11.700;2023-06-24T02:42:31;15.48;;;9.88;;
63012;SDS011;62113;45.624;11.700;2023-06-24T02:44:56;15.57;;;9.80;;
63012;SDS011;62113;45.624;11.700;2023-06-24T02:47:23;23.00;;;11.05;;
63012;SDS011;62113;45.624;11.700;2023-06-24T02:49:49;23.25;;;11.07;;
63012;SDS011;62113;45.624;11.700;2023-06-24T02:52:16;16.65;;;10.70;;
63012;SDS011;62113;45.624;11.700;2023-06-24T02:54:42;16.15;;;10.48;;
63012;SDS011;62113;45.624;11.700;2023-06-24T02:57:09;17.48;;;10.98;;
63012;SDS011;62113;45.624;11.700;2023-06-24T02:59:36;17.23;;;11.05;;
63012;SDS011;62113;45.624;11.700;2023-06-24T03:02:02;13.15;;;11.30;;
63012;SDS011;62113;45.624;11.700;2023-06-24T03:04:30;21.77;;;11.02;;
63012;SDS011;62113;45.624;11.700;2023-06-24T03:06:56;18.20;;;10.32;;
63012;SDS011;62113;45.624;11.700;2023-06-24T03:09:24;17.60;;;10.85;;
63012;SDS011;62113;45.624;11.700;2023-06-24T03:11:51;16.85;;;10.05;;
63012;SDS011;62113;45.624;11.700;2023-06-24T03:14:17;17.83;;;9.98;;
63012;SDS011;62113;45.624;11.700;2023-06-24T03:16:43;11.70;;;9.33;;
63012;SDS011;62113;45.624;11.700;2023-06-24T03:19:09;23.02;;;9.88;;
63012;SDS011;62113;45.624;11.700;2023-06-24T03:21:34;14.60;;;8.40;;
63012;SDS011;62113;45.624;11.700;2023-06-24T03:24:00;16.17;;;9.33;;
63012;SDS011;62113;45.624;11.700;2023-06-24T03:26:32;17.20;;;9.40;;
63012;SDS011;62113;45.624;11.700;2023-06-24T03:29:03;20.17;;;9.07;;
63012;SDS011;62113;45.624;11.700;2023-06-24T03:31:29;15.88;;;9.40;;
63012;SDS011;62113;45.624;11.700;2023-06-24T03:33:55;18.80;;;10.25;;
63012;SDS011;62113;45.624;11.700;2023-06-24T03:36:21;18.25;;;9.65;;
63012;SDS011;62113;45.624;11.700;2023-06-24T03:38:46;16.57;;;9.20;;
63012;SDS011;62113;45.624;11.700;2023-06-24T03:41:12;10.23;;;8.30;;
63012;SDS011;62113;45.624;11.700;2023-06-24T03:43:38;17.47;;;8.60;;
63012;SDS011;62113;45.624;11.700;2023-06-24T03:46:04;20.55;;;8.95;;
63012;SDS011;62113;45.624;11.700;2023-06-24T03:48:30;18.80;;;8.83;;
63012;SDS011;62113;45.624;11.700;2023-06-24T03:50:55;16.53;;;8.80;;
63012;SDS011;62113;45.624;11.700;2023-06-24T03:53:21;14.83;;;7.70;;
63012;SDS011;62113;45.624;11.700;2023-06-24T03:55:47;18.47;;;8.37;;
63012;SDS011;62113;45.624;11.700;2023-06-24T03:58:12;17.43;;;8.30;;
63012;SDS011;62113;45.624;11.700;2023-06-24T04:00:38;12.93;;;7.40;;
63012;SDS011;62113;45.624;11.700;2023-06-24T04:03:08;14.65;;;8.15;;
63012;SDS011;62113;45.624;11.700;2023-06-24T04:05:34;12.27;;;7.72;;
63012;SDS011;62113;45.624;11.700;2023-06-24T04:07:59;17.10;;;7.77;;
63012;SDS011;62113;45.624;11.700;2023-06-24T04:10:25;11.43;;;7.37;;
63012;SDS011;62113;45.624;11.700;2023-06-24T04:12:50;14.13;;;7.57;;
63012;SDS011;62113;45.624;11.700;2023-06-24T04:15:16;20.93;;;8.10;;
63012;SDS011;62113;45.624;11.700;2023-06-24T04:17:42;14.60;;;8.15;;
63012;SDS011;62113;45.624;11.700;2023-06-24T04:20:08;10.73;;;7.13;;
63012;SDS011;62113;45.624;11.700;2023-06-24T04:22:36;14.98;;;7.78;;
63012;SDS011;62113;45.624;11.700;2023-06-24T04:25:03;16.60;;;8.00;;
63012;SDS011;62113;45.624;11.700;2023-06-24T04:27:30;15.18;;;8.07;;
63012;SDS011;62113;45.624;11.700;2023-06-24T04:29:57;14.90;;;8.20;;
63012;SDS011;62113;45.624;11.700;2023-06-24T04:32:22;13.33;;;7.50;;
63012;SDS011;62113;45.624;11.700;2023-06-24T04:34:48;19.57;;;7.50;;
63012;SDS011;62113;45.624;11.700;2023-06-24T04:37:13;13.50;;;6.87;;
63012;SDS011;62113;45.624;11.700;2023-06-24T04:39:39;17.60;;;8.17;;
63012;SDS011;62113;45.624;11.700;2023-06-24T04:42:05;11.10;;;7.00;;
63012;SDS011;62113;45.624;11.700;2023-06-24T04:44:30;16.43;;;7.07;;
63012;SDS011;62113;45.624;11.700;2023-06-24T04:46:56;8.20;;;6.67;;
63012;SDS011;62113;45.624;11.700;2023-06-24T04:49:21;16.87;;;6.10;;
63012;SDS011;62113;45.624;11.700;2023-06-24T04:51:47;16.90;;;6.13;;
63012;SDS011;62113;45.624;11.700;2023-06-24T04:54:13;14.23;;;5.90;;
63012;SDS011;62113;45.624;11.700;2023-06-24T04:56:39;6.47;;;5.47;;
63012;SDS011;62113;45.624;11.700;2023-06-24T04:59:05;13.02;;;5.53;;
63012;SDS011;62113;45.624;11.700;2023-06-24T05:01:30;14.03;;;7.00;;
63012;SDS011;62113;45.624;11.700;2023-06-24T05:03:56;11.93;;;6.47;;
63012;SDS011;62113;45.624;11.700;2023-06-24T05:06:21;13.77;;;7.10;;
63012;SDS011;62113;45.624;11.700;2023-06-24T05:08:47;18.90;;;6.37;;
63012;SDS011;62113;45.624;11.700;2023-06-24T05:11:13;14.57;;;5.77;;
63012;SDS011;62113;45.624;11.700;2023-06-24T05:13:39;13.70;;;6.20;;
63012;SDS011;62113;45.624;11.700;2023-06-24T05:20:56;10.17;;;4.90;;
63012;SDS011;62113;45.624;11.700;2023-06-24T05:23:21;8.50;;;5.00;;
63012;SDS011;62113;45.624;11.700;2023-06-24T05:25:47;11.00;;;5.27;;
63012;SDS011;62113;45.624;11.700;2023-06-24T05:28:12;11.43;;;5.50;;
63012;SDS011;62113;45.624;11.700;2023-06-24T05:30:38;14.47;;;6.13;;
63012;SDS011;62113;45.624;11.700;2023-06-24T05:33:04;11.90;;;5.93;;
63012;SDS011;62113;45.624;11.700;2023-06-24T05:35:29;8.00;;;5.10;;
63012;SDS011;62113;45.624;11.700;2023-06-24T05:37:55;5.37;;;3.97;;
63012;SDS011;62113;45.624;11.700;2023-06-24T05:40:20;10.67;;;3.77;;
63012;SDS011;62113;45.624;11.700;2023-06-24T05:42:46;9.27;;;3.97;;
63012;SDS011;62113;45.624;11.700;2023-06-24T05:45:12;9.27;;;3.50;;
63012;SDS011;62113;45.624;11.700;2023-06-24T05:47:37;5.73;;;3.33;;
63012;SDS011;62113;45.624;11.700;2023-06-24T05:50:04;9.90;;;3.78;;
63012;SDS011;62113;45.624;11.700;2023-06-24T05:52:30;9.07;;;3.25;;
63012;SDS011;62113;45.624;11.700;2023-06-24T05:54:55;10.03;;;3.70;;
63012;SDS011;62113;45.624;11.700;2023-06-24T05:57:21;6.83;;;4.20;;
63012;SDS011;62113;45.624;11.700;2023-06-24T05:59:49;9.98;;;4.05;;
63012;SDS011;62113;45.624;11.700;2023-06-24T06:02:15;10.07;;;4.27;;
63012;SDS011;62113;45.624;11.700;2023-06-24T06:04:41;8.13;;;4.47;;
63012;SDS011;62113;45.624;11.700;2023-06-24T06:07:06;8.13;;;4.47;;
63012;SDS011;62113;45.624;11.700;2023-06-24T06:09:32;6.23;;;4.10;;
63012;SDS011;62113;45.624;11.700;2023-06-24T06:11:58;6.32;;;3.72;;
63012;SDS011;62113;45.624;11.700;2023-06-24T06:14:23;3.50;;;3.20;;
63012;SDS011;62113;45.624;11.700;2023-06-24T06:16:49;4.70;;;2.97;;
63012;SDS011;62113;45.624;11.700;2023-06-24T06:19:14;3.90;;;2.67;;
63012;SDS011;62113;45.624;11.700;2023-06-24T06:21:40;4.30;;;3.13;;
63012;SDS011;62113;45.624;11.700;2023-06-24T06:24:05;3.73;;;3.27;;
63012;SDS011;62113;45.624;11.700;2023-06-24T06:26:31;5.35;;;3.17;;
63012;SDS011;62113;45.624;11.700;2023-06-24T06:28:57;10.43;;;3.57;;
63012;SDS011;62113;45.624;11.700;2023-06-24T06:31:22;4.25;;;3.00;;
63012;SDS011;62113;45.624;11.700;2023-06-24T06:33:50;4.57;;;3.40;;
63012;SDS011;62113;45.624;11.700;2023-06-24T06:36:16;11.50;;;3.38;;
63012;SDS011;62113;45.624;11.700;2023-06-24T06:38:42;11.63;;;3.38;;
63012;SDS011;62113;45.624;11.700;2023-06-24T06:41:07;16.95;;;4.20;;
63012;SDS011;62113;45.624;11.700;2023-06-24T06:48:24;7.63;;;2.85;;
63012;SDS011;62113;45.624;11.700;2023-06-24T06:50:50;6.60;;;3.00;;
63012;SDS011;62113;45.624;11.700;2023-06-24T06:53:17;14.15;;;2.90;;
63012;SDS011;62113;45.624;11.700;2023-06-24T06:55:43;7.18;;;2.88;;
63012;SDS011;62113;45.624;11.700;2023-06-24T06:58:08;5.78;;;3.10;;
63012;SDS011;62113;45.624;11.700;2023-06-24T07:00:34;2.80;;;2.50;;
63012;SDS011;62113;45.624;11.700;2023-06-24T07:03:00;6.25;;;2.40;;
63012;SDS011;62113;45.624;11.700;2023-06-24T07:05:25;9.13;;;2.78;;
63012;SDS011;62113;45.624;11.700;2023-06-24T07:07:51;4.97;;;2.58;;
63012;SDS011;62113;45.624;11.700;2023-06-24T07:10:16;4.50;;;2.83;;
63012;SDS011;62113;45.624;11.700;2023-06-24T07:12:42;2.83;;;2.30;;
63012;SDS011;62113;45.624;11.700;2023-06-24T07:15:08;4.00;;;2.50;;
63012;SDS011;62113;45.624;11.700;2023-06-24T07:17:34;5.75;;;2.42;;
63012;SDS011;62113;45.624;11.700;2023-06-24T07:19:59;4.88;;;2.40;;
63012;SDS011;62113;45.624;11.700;2023-06-24T07:22:25;6.20;;;2.50;;
63012;SDS011;62113;45.624;11.700;2023-06-24T07:24:51;3.08;;;2.22;;
63012;SDS011;62113;45.624;11.700;2023-06-24T07:27:16;5.25;;;2.50;;
63012;SDS011;62113;45.624;11.700;2023-06-24T07:29:42;2.40;;;2.20;;
63012;SDS011;62113;45.624;11.700;2023-06-24T07:32:08;3.35;;;2.42;;
63012;SDS011;62113;45.624;11.700;2023-06-24T07:34:33;4.00;;;2.63;;
63012;SDS011;62113;45.624;11.700;2023-06-24T07:36:59;3.15;;;2.50;;
63012;SDS011;62113;45.624;11.700;2023-06-24T07:39:25;2.65;;;2.20;;
63012;SDS011;62113;45.624;11.700;2023-06-24T07:41:51;4.82;;;2.38;;
63012;SDS011;62113;45.624;11.700;2023-06-24T07:44:16;5.70;;;2.15;;
63012;SDS011;62113;45.624;11.700;2023-06-24T07:46:42;5.38;;;2.13;;
63012;SDS011;62113;45.624;11.700;2023-06-24T07:49:08;2.78;;;2.20;;
63012;SDS011;62113;45.624;11.700;2023-06-24T07:51:34;2.65;;;2.33;;
63012;SDS011;62113;45.624;11.700;2023-06-24T07:54:00;3.00;;;2.20;;
63012;SDS011;62113;45.624;11.700;2023-06-24T07:56:26;3.00;;;2.30;;
63012;SDS011;62113;45.624;11.700;2023-06-24T07:58:51;3.67;;;2.00;;
63012;SDS011;62113;45.624;11.700;2023-06-24T08:01:17;2.92;;;2.10;;
63012;SDS011;62113;45.624;11.700;2023-06-24T08:03:42;1.85;;;1.70;;
63012;SDS011;62113;45.624;11.700;2023-06-24T08:06:08;1.85;;;1.75;;
63012;SDS011;62113;45.624;11.700;2023-06-24T08:08:34;2.55;;;1.88;;
63012;SDS011;62113;45.624;11.700;2023-06-24T08:11:00;4.15;;;2.03;;
63012;SDS011;62113;45.624;11.700;2023-06-24T08:13:27;2.45;;;2.25;;
63012;SDS011;62113;45.624;11.700;2023-06-24T08:15:53;2.15;;;1.90;;
63012;SDS011;62113;45.624;11.700;2023-06-24T08:18:18;2.05;;;1.95;;
63012;SDS011;62113;45.624;11.700;2023-06-24T08:20:44;6.20;;;2.22;;
63012;SDS011;62113;45.624;11.700;2023-06-24T08:23:09;6.63;;;2.30;;
63012;SDS011;62113;45.624;11.700;2023-06-24T08:25:35;3.05;;;2.20;;
63012;SDS011;62113;45.624;11.700;2023-06-24T08:28:01;2.20;;;2.00;;
63012;SDS011;62113;45.624;11.700;2023-06-24T08:30:26;2.80;;;2.30;;
63012;SDS011;62113;45.624;11.700;2023-06-24T08:32:52;3.95;;;2.03;;
63012;SDS011;62113;45.624;11.700;2023-06-24T08:35:17;2.30;;;2.10;;
63012;SDS011;62113;45.624;11.700;2023-06-24T08:37:43;4.30;;;2.17;;
63012;SDS011;62113;45.624;11.700;2023-06-24T08:40:09;4.25;;;2.40;;
63012;SDS011;62113;45.624;11.700;2023-06-24T08:42:35;3.25;;;2.45;;
63012;SDS011;62113;45.624;11.700;2023-06-24T08:45:00;3.30;;;2.50;;
63012;SDS011;62113;45.624;11.700;2023-06-24T08:47:26;3.53;;;2.22;;
63012;SDS011;62113;45.624;11.700;2023-06-24T08:49:55;5.38;;;2.47;;
63012;SDS011;62113;45.624;11.700;2023-06-24T08:52:29;3.38;;;2.10;;
63012;SDS011;62113;45.624;11.700;2023-06-24T08:54:57;3.22;;;2.30;;
63012;SDS011;62113;45.624;11.700;2023-06-24T08:57:24;3.92;;;2.60;;
63012;SDS011;62113;45.624;11.700;2023-06-24T08:59:51;3.00;;;2.70;;
63012;SDS011;62113;45.624;11.700;2023-06-24T09:02:18;6.00;;;2.60;;
63012;SDS011;62113;45.624;11.700;2023-06-24T09:04:44;2.63;;;2.40;;
63012;SDS011;62113;45.624;11.700;2023-06-24T09:09:42;2.42;;;2.20;;
63012;SDS011;62113;45.624;11.700;2023-06-24T09:14:38;2.25;;;2.10;;
63012;SDS011;62113;45.624;11.700;2023-06-24T09:17:05;4.75;;;2.20;;
63012;SDS011;62113;45.624;11.700;2023-06-24T09:19:31;2.97;;;2.20;;
63012;SDS011;62113;45.624;11.700;2023-06-24T09:22:05;2.50;;;2.00;;
63012;SDS011;62113;45.624;11.700;2023-06-24T09:24:35;2.47;;;2.28;;
63012;SDS011;62113;45.624;11.700;2023-06-24T09:27:01;4.80;;;2.30;;
63012;SDS011;62113;45.624;11.700;2023-06-24T09:29:31;2.60;;;2.40;;
63012;SDS011;62113;45.624;11.700;2023-06-24T09:31:57;5.80;;;2.40;;
63012;SDS011;62113;45.624;11.700;2023-06-24T09:34:25;4.90;;;2.30;;
63012;SDS011;62113;45.624;11.700;2023-06-24T09:36:52;2.58;;;2.38;;
63012;SDS011;62113;45.624;11.700;2023-06-24T09:39:19;3.63;;;2.35;;
63012;SDS011;62113;45.624;11.700;2023-06-24T09:41:50;3.17;;;2.28;;
63012;SDS011;62113;45.624;11.700;2023-06-24T09:44:16;3.30;;;2.40;;
63012;SDS011;62113;45.624;11.700;2023-06-24T09:46:44;2.58;;;2.38;;
63012;SDS011;62113;45.624;11.700;2023-06-24T09:49:09;3.08;;;2.75;;
63012;SDS011;62113;45.624;11.700;2023-06-24T09:54:04;2.67;;;2.47;;
63012;SDS011;62113;45.624;11.700;2023-06-24T09:56:33;2.88;;;2.53;;
63012;SDS011;62113;45.624;11.700;2023-06-24T09:59:03;4.78;;;2.58;;
63012;SDS011;62113;45.624;11.700;2023-06-24T10:01:29;3.45;;;2.58;;
63012;SDS011;62113;45.624;11.700;2023-06-24T10:03:57;6.05;;;2.80;;
63012;SDS011;62113;45.624;11.700;2023-06-24T10:06:24;3.47;;;2.50;;
63012;SDS011;62113;45.624;11.700;2023-06-24T10:08:51;2.67;;;2.45;;
63012;SDS011;62113;45.624;11.700;2023-06-24T10:11:17;4.47;;;2.50;;
63012;SDS011;62113;45.624;11.700;2023-06-24T10:13:42;4.20;;;2.80;;
63012;SDS011;62113;45.624;11.700;2023-06-24T10:16:08;3.50;;;2.70;;
63012;SDS011;62113;45.624;11.700;2023-06-24T10:21:02;3.20;;;2.88;;
63012;SDS011;62113;45.624;11.700;2023-06-24T10:23:33;6.65;;;2.90;;
63012;SDS011;62113;45.624;11.700;2023-06-24T10:26:21;3.30;;;2.70;;
63012;SDS011;62113;45.624;11.700;2023-06-24T10:45:01;4.30;;;2.47;;
63012;SDS011;62113;45.624;11.700;2023-06-24T10:50:05;4.15;;;2.50;;
63012;SDS011;62113;45.624;11.700;2023-06-24T10:52:32;2.47;;;2.25;;
63012;SDS011;62113;45.624;11.700;2023-06-24T10:55:16;2.47;;;2.28;;
63012;SDS011;62113;45.624;11.700;2023-06-24T10:57:42;4.80;;;2.50;;
63012;SDS011;62113;45.624;11.700;2023-06-24T11:00:09;6.07;;;2.80;;
63012;SDS011;62113;45.624;11.700;2023-06-24T11:02:35;3.08;;;2.47;;
63012;SDS011;62113;45.624;11.700;2023-06-24T11:05:02;5.22;;;2.90;;
63012;SDS011;62113;45.624;11.700;2023-06-24T11:07:29;4.00;;;2.55;;
63012;SDS011;62113;45.624;11.700;2023-06-24T11:12:31;5.95;;;2.40;;
63012;SDS011;62113;45.624;11.700;2023-06-24T11:15:03;3.60;;;2.28;;
63012;SDS011;62113;45.624;11.700;2023-06-24T11:17:30;4.38;;;2.33;;
63012;SDS011;62113;45.624;11.700;2023-06-24T11:19:58;3.00;;;2.42;;
63012;SDS011;62113;45.624;11.700;2023-06-24T11:24:50;5.65;;;2.70;;
63012;SDS011;62113;45.624;11.700;2023-06-24T11:27:23;3.63;;;2.67;;
63012;SDS011;62113;45.624;11.700;2023-06-24T11:29:56;5.40;;;2.75;;
63012;SDS011;62113;45.624;11.700;2023-06-24T11:32:25;3.20;;;2.60;;
63012;SDS011;62113;45.624;11.700;2023-06-24T11:34:59;2.50;;;2.30;;
63012;SDS011;62113;45.624;11.700;2023-06-24T11:40:05;5.55;;;2.30;;
63012;SDS011;62113;45.624;11.700;2023-06-24T11:42:32;2.40;;;2.20;;
63012;SDS011;62113;45.624;11.700;2023-06-24T11:45:01;4.25;;;2.63;;
63012;SDS011;62113;45.624;11.700;2023-06-24T11:47:37;2.70;;;2.35;;
63012;SDS011;62113;45.624;11.700;2023-06-24T11:50:04;3.78;;;2.60;;
63012;SDS011;62113;45.624;11.700;2023-06-24T11:52:40;4.57;;;2.45;;
63012;SDS011;62113;45.624;11.700;2023-06-24T11:55:19;2.58;;;2.38;;
63012;SDS011;62113;45.624;11.700;2023-06-24T11:57:52;4.07;;;2.45;;
63012;SDS011;62113;45.624;11.700;2023-06-24T12:00:31;4.35;;;2.28;;
63012;SDS011;62113;45.624;11.700;2023-06-24T12:03:08;3.58;;;2.55;;
63012;SDS011;62113;45.624;11.700;2023-06-24T12:05:35;2.40;;;2.20;;
63012;SDS011;62113;45.624;11.700;2023-06-24T12:08:05;2.42;;;2.22;;
63012;SDS011;62113;45.624;11.700;2023-06-24T12:10:34;1.88;;;1.77;;
63012;SDS011;62113;45.624;11.700;2023-06-24T12:13:01;4.60;;;1.88;;
63012;SDS011;62113;45.624;11.700;2023-06-24T12:15:28;3.03;;;2.10;;
63012;SDS011;62113;45.624;11.700;2023-06-24T12:17:54;2.08;;;1.85;;
63012;SDS011;62113;45.624;11.700;2023-06-24T12:20:20;6.65;;;2.20;;
63012;SDS011;62113;45.624;11.700;2023-06-24T12:25:12;3.83;;;2.20;;
63012;SDS011;62113;45.624;11.700;2023-06-24T12:30:05;3.67;;;2.20;;
63012;SDS011;62113;45.624;11.700;2023-06-24T12:32:31;2.20;;;1.95;;
63012;SDS011;62113;45.624;11.700;2023-06-24T12:39:48;18.38;;;10.25;;
63012;SDS011;62113;45.624;11.700;2023-06-24T12:42:16;6.10;;;3.55;;
63012;SDS011;62113;45.624;11.700;2023-06-24T12:49:32;21.92;;;12.05;;
63012;SDS011;62113;45.624;11.700;2023-06-24T12:51:58;50.30;;;24.27;;
63012;SDS011;62113;45.624;11.700;2023-06-24T12:54:23;3.70;;;2.70;;
63012;SDS011;62113;45.624;11.700;2023-06-24T12:59:14;2.50;;;2.30;;
63012;SDS011;62113;45.624;11.700;2023-06-24T13:04:09;6.75;;;2.47;;
63012;SDS011;62113;45.624;11.700;2023-06-24T13:06:35;4.38;;;2.30;;
63012;SDS011;62113;45.624;11.700;2023-06-24T13:11:27;2.70;;;2.03;;
63012;SDS011;62113;45.624;11.700;2023-06-24T13:13:53;2.05;;;1.95;;
63012;SDS011;62113;45.624;11.700;2023-06-24T13:16:19;2.58;;;2.35;;
63012;SDS011;62113;45.624;11.700;2023-06-24T13:21:10;2.00;;;1.90;;
63012;SDS011;62113;45.624;11.700;2023-06-24T13:26:03;2.25;;;1.77;;
63012;SDS011;62113;45.624;11.700;2023-06-24T13:30:56;3.95;;;1.90;;
63012;SDS011;62113;45.624;11.700;2023-06-24T13:35:48;2.90;;;1.83;;
63012;SDS011;62113;45.624;11.700;2023-06-24T13:38:14;2.05;;;1.85;;
63012;SDS011;62113;45.624;11.700;2023-06-24T13:43:05;3.03;;;2.72;;
63012;SDS011;62113;45.624;11.700;2023-06-24T13:50:22;7.93;;;4.95;;
63012;SDS011;62113;45.624;11.700;2023-06-24T13:52:48;4.75;;;3.65;;
63012;SDS011;62113;45.624;11.700;2023-06-24T14:00:04;1.77;;;1.60;;
63012;SDS011;62113;45.624;11.700;2023-06-24T14:02:31;1.73;;;1.30;;
63012;SDS011;62113;45.624;11.700;2023-06-24T14:07:22;6.60;;;3.67;;
63012;SDS011;62113;45.624;11.700;2023-06-24T14:09:47;4.53;;;2.95;;
63012;SDS011;62113;45.624;11.700;2023-06-24T14:12:13;7.05;;;3.72;;
63012;SDS011;62113;45.624;11.700;2023-06-24T14:14:39;2.75;;;2.20;;
63012;SDS011;62113;45.624;11.700;2023-06-24T14:17:07;2.30;;;1.80;;
63012;SDS011;62113;45.624;11.700;2023-06-24T14:19:35;2.10;;;1.58;;
63012;SDS011;62113;45.624;11.700;2023-06-24T14:24:26;2.22;;;1.70;;
63012;SDS011;62113;45.624;11.700;2023-06-24T14:26:52;1.75;;;1.45;;
63012;SDS011;62113;45.624;11.700;2023-06-24T14:34:08;2.78;;;1.70;;
63012;SDS011;62113;45.624;11.700;2023-06-24T14:38:59;1.80;;;1.70;;
63012;SDS011;62113;45.624;11.700;2023-06-24T14:43:51;2.35;;;1.70;;
63012;SDS011;62113;45.624;11.700;2023-06-24T14:48:42;1.63;;;1.52;;
63012;SDS011;62113;45.624;11.700;2023-06-24T14:53:33;2.92;;;1.40;;
63012;SDS011;62113;45.624;11.700;2023-06-24T15:03:15;4.25;;;1.90;;
63012;SDS011;62113;45.624;11.700;2023-06-24T15:08:06;1.50;;;1.27;;
63012;SDS011;62113;45.624;11.700;2023-06-24T15:10:32;1.60;;;1.50;;
63012;SDS011;62113;45.624;11.700;2023-06-24T15:12:58;1.40;;;1.30;;
63012;SDS011;62113;45.624;11.700;2023-06-24T15:15:23;2.80;;;1.30;;
63012;SDS011;62113;45.624;11.700;2023-06-24T15:17:49;1.38;;;1.27;;
63012;SDS011;62113;45.624;11.700;2023-06-24T15:20:15;1.30;;;1.30;;
63012;SDS011;62113;45.624;11.700;2023-06-24T15:22:40;2.58;;;1.50;;
63012;SDS011;62113;45.624;11.700;2023-06-24T15:25:07;4.80;;;1.50;;
63012;SDS011;62113;45.624;11.700;2023-06-24T15:29:58;2.03;;;1.60;;
63012;SDS011;62113;45.624;11.700;2023-06-24T15:34:49;1.70;;;1.60;;
63012;SDS011;62113;45.624;11.700;2023-06-24T15:37:15;4.80;;;1.30;;
63012;SDS011;62113;45.624;11.700;2023-06-24T15:39:41;1.70;;;1.60;;
63012;SDS011;62113;45.624;11.700;2023-06-24T15:42:06;3.30;;;1.63;;
63012;SDS011;62113;45.624;11.700;2023-06-24T15:44:32;2.08;;;1.83;;
63012;SDS011;62113;45.624;11.700;2023-06-24T15:46:58;2.13;;;1.67;;
63012;SDS011;62113;45.624;11.700;2023-06-24T15:49:23;2.20;;;1.73;;
63012;SDS011;62113;45.624;11.700;2023-06-24T15:51:49;2.15;;;1.50;;
63012;SDS011;62113;45.624;11.700;2023-06-24T15:54:15;1.73;;;1.63;;
63012;SDS011;62113;45.624;11.700;2023-06-24T15:56:40;3.75;;;1.30;;
63012;SDS011;62113;45.624;11.700;2023-06-24T16:01:31;1.50;;;1.40;;
63012;SDS011;62113;45.624;11.700;2023-06-24T16:03:57;3.50;;;1.40;;
63012;SDS011;62113;45.624;11.700;2023-06-24T16:06:23;2.45;;;1.42;;
63012;SDS011;62113;45.624;11.700;2023-06-24T16:08:49;1.60;;;1.50;;
63012;SDS011;62113;45.624;11.700;2023-06-24T16:13:40;2.00;;;1.88;;
63012;SDS011;62113;45.624;11.700;2023-06-24T16:16:06;4.32;;;2.50;;
63012;SDS011;62113;45.624;11.700;2023-06-24T16:18:31;3.20;;;2.63;;
63012;SDS011;62113;45.624;11.700;2023-06-24T16:20:57;4.75;;;2.28;;
63012;SDS011;62113;45.624;11.700;2023-06-24T16:23:22;2.58;;;2.22;;
63012;SDS011;62113;45.624;11.700;2023-06-24T16:25:48;2.75;;;1.98;;
63012;SDS011;62113;45.624;11.700;2023-06-24T16:28:14;1.92;;;1.77;;
63012;SDS011;62113;45.624;11.700;2023-06-24T16:33:05;1.58;;;1.50;;
63012;SDS011;62113;45.624;11.700;2023-06-24T16:35:31;1.58;;;1.48;;
63012;SDS011;62113;45.624;11.700;2023-06-24T16:37:56;1.50;;;1.40;;
63012;SDS011;62113;45.624;11.700;2023-06-24T16:40:22;1.60;;;1.50;;
63012;SDS011;62113;45.624;11.700;2023-06-24T16:42:49;1.35;;;1.30;;
63012;SDS011;62113;45.624;11.700;2023-06-24T16:45:14;6.10;;;1.42;;
63012;SDS011;62113;45.624;11.700;2023-06-24T16:47:40;1.90;;;1.10;;
63012;SDS011;62113;45.624;11.700;2023-06-24T16:50:05;1.20;;;1.20;;
63012;SDS011;62113;45.624;11.700;2023-06-24T16:55:00;2.85;;;1.50;;
63012;SDS011;62113;45.624;11.700;2023-06-24T16:57:27;2.13;;;1.70;;
63012;SDS011;62113;45.624;11.700;2023-06-24T16:59:52;2.40;;;1.30;;